createdAt,value
2022-11-17T00:00:49.981Z,5.23
2022-11-17T00:03:18.261Z,4.40
2022-11-17T00:05:46.637Z,4.63
2022-11-17T00:08:16.371Z,5.50
2022-11-17T00:10:44.718Z,5.70
2022-11-17T00:13:30.469Z,5.30
2022-11-17T00:15:58.840Z,5.10
2022-11-17T00:18:44.449Z,4.27
2022-11-17T00:21:23.893Z,4.30
2022-11-17T00:23:53.842Z,5.10
2022-11-17T00:26:23.913Z,6.07
2022-11-17T00:28:54.781Z,4.80
2022-11-17T00:31:42.254Z,4.77
2022-11-17T00:34:14.634Z,4.90
2022-11-17T00:36:44.477Z,6.00
2022-11-17T00:39:15.400Z,3.87
2022-11-17T00:41:43.923Z,5.50
2022-11-17T00:44:12.620Z,6.30
2022-11-17T00:46:41.059Z,6.50
2022-11-17T00:49:10.585Z,8.20
2022-11-17T00:51:39.745Z,8.27
2022-11-17T00:54:11.097Z,6.90
2022-11-17T00:56:40.977Z,5.87
2022-11-17T00:59:09.345Z,6.17
2022-11-17T01:01:39.700Z,6.40
2022-11-17T01:04:08.870Z,5.00
2022-11-17T01:06:39.000Z,5.97
2022-11-17T01:09:12.314Z,4.43
2022-11-17T01:11:42.500Z,4.83
2022-11-17T01:14:14.505Z,4.17
2022-11-17T01:16:42.926Z,3.10
2022-11-17T01:19:13.095Z,4.50
2022-11-17T01:21:41.588Z,4.63
2022-11-17T01:24:12.108Z,4.27
2022-11-17T01:26:42.311Z,3.70
2022-11-17T01:29:13.292Z,3.90
2022-11-17T01:31:44.343Z,4.25
2022-11-17T01:34:13.083Z,3.30
2022-11-17T01:37:00.692Z,4.20
2022-11-17T01:39:30.507Z,2.90
2022-11-17T01:42:05.325Z,3.75
2022-11-17T01:45:05.771Z,4.40
2022-11-17T01:47:42.666Z,4.13
2022-11-17T01:50:25.544Z,3.03
2022-11-17T01:52:56.651Z,3.08
2022-11-17T01:55:27.009Z,2.80
2022-11-17T01:58:00.889Z,2.70
2022-11-17T02:00:29.976Z,3.65
2022-11-17T02:02:58.606Z,2.60
2022-11-17T02:05:39.276Z,2.70
2022-11-17T02:08:08.522Z,2.05
2022-11-17T02:10:38.338Z,2.70
2022-11-17T02:13:08.761Z,2.63
2022-11-17T02:15:37.151Z,2.50
2022-11-17T02:18:05.979Z,2.17
2022-11-17T02:20:46.918Z,1.90
2022-11-17T02:23:57.304Z,2.20
2022-11-17T02:26:54.021Z,1.88
2022-11-17T02:29:29.059Z,1.85
2022-11-17T02:32:05.864Z,2.60
2022-11-17T02:34:42.782Z,2.40
2022-11-17T02:37:18.777Z,2.85
2022-11-17T02:39:53.125Z,2.05
2022-11-17T02:42:49.979Z,2.60
2022-11-17T02:45:22.293Z,1.95
2022-11-17T02:47:54.741Z,2.17
2022-11-17T02:50:28.246Z,2.45
2022-11-17T02:52:57.450Z,2.38
2022-11-17T02:55:25.645Z,2.20
2022-11-17T02:57:53.967Z,2.92
2022-11-17T03:00:23.927Z,2.38
2022-11-17T03:03:09.323Z,2.13
2022-11-17T03:05:47.415Z,2.05
2022-11-17T03:08:28.715Z,2.00
2022-11-17T03:11:03.879Z,2.50
2022-11-17T03:13:41.900Z,2.08
2022-11-17T03:16:22.861Z,2.33
2022-11-17T03:19:02.084Z,2.30
2022-11-17T03:21:33.586Z,2.13
2022-11-17T03:24:06.664Z,2.00
2022-11-17T03:26:37.810Z,1.92
2022-11-17T03:29:10.131Z,1.77
2022-11-17T03:31:40.928Z,1.90
2022-11-17T03:34:14.623Z,2.42
2022-11-17T03:36:47.991Z,2.30
2022-11-17T03:39:21.458Z,2.55
2022-11-17T03:41:52.495Z,2.47
2022-11-17T03:44:24.742Z,2.83
2022-11-17T03:46:56.990Z,1.95
2022-11-17T03:49:34.153Z,2.88
2022-11-17T03:52:04.062Z,2.20
2022-11-17T03:54:33.083Z,2.80
2022-11-17T03:57:05.919Z,2.20
2022-11-17T03:59:43.211Z,1.83
2022-11-17T04:02:18.198Z,2.15
2022-11-17T04:05:03.795Z,2.33
2022-11-17T04:07:32.268Z,2.35
2022-11-17T04:10:00.686Z,2.42
2022-11-17T04:12:46.328Z,2.20
2022-11-17T04:15:32.348Z,2.50
2022-11-17T04:18:03.139Z,2.38
2022-11-17T04:20:36.028Z,2.58
2022-11-17T04:23:11.410Z,2.50
2022-11-17T04:25:58.869Z,2.03
2022-11-17T04:28:40.609Z,2.22
2022-11-17T04:31:12.334Z,1.40
2022-11-17T04:33:43.486Z,1.63
2022-11-17T04:36:13.409Z,2.45
2022-11-17T04:38:42.907Z,1.90
2022-11-17T04:41:30.581Z,2.20
2022-11-17T04:43:59.608Z,1.92
2022-11-17T04:46:30.116Z,1.98
2022-11-17T04:49:00.691Z,1.42
2022-11-17T04:51:30.350Z,2.70
2022-11-17T04:53:59.202Z,2.28
2022-11-17T04:56:29.306Z,2.60
2022-11-17T04:58:58.419Z,1.55
2022-11-17T05:01:28.398Z,2.15
2022-11-17T05:03:59.788Z,2.10
2022-11-17T05:06:32.032Z,1.75
2022-11-17T05:09:01.891Z,2.20
2022-11-17T05:11:49.010Z,2.00
2022-11-17T05:14:21.734Z,1.75
2022-11-17T05:17:10.877Z,1.60
2022-11-17T05:19:44.244Z,3.03
2022-11-17T05:22:31.957Z,2.38
2022-11-17T05:25:00.454Z,2.70
2022-11-17T05:27:29.300Z,2.00
2022-11-17T05:29:57.743Z,2.00
2022-11-17T05:32:26.073Z,2.70
2022-11-17T05:34:55.792Z,2.65
2022-11-17T05:37:24.149Z,1.65
2022-11-17T05:39:52.555Z,1.65
2022-11-17T05:42:20.847Z,1.55
2022-11-17T05:44:49.458Z,2.08
2022-11-17T05:47:17.797Z,2.75
2022-11-17T05:49:46.268Z,2.08
2022-11-17T05:52:15.936Z,2.40
2022-11-17T05:54:44.281Z,2.50
2022-11-17T05:57:15.800Z,2.17
2022-11-17T05:59:47.664Z,1.83
2022-11-17T06:02:19.952Z,1.83
2022-11-17T06:04:50.318Z,2.33
2022-11-17T06:07:21.302Z,2.22
2022-11-17T06:09:50.713Z,2.00
2022-11-17T06:12:19.046Z,1.95
2022-11-17T06:14:47.440Z,3.08
2022-11-17T06:17:22.607Z,2.85
2022-11-17T06:19:54.661Z,2.92
2022-11-17T06:22:25.475Z,3.50
2022-11-17T06:24:54.134Z,3.35
2022-11-17T06:27:22.982Z,2.88
2022-11-17T06:29:51.457Z,2.78
2022-11-17T06:32:20.862Z,3.22
2022-11-17T06:34:55.835Z,2.70
2022-11-17T06:37:26.353Z,4.05
2022-11-17T06:39:54.723Z,4.00
2022-11-17T06:42:43.832Z,4.53
2022-11-17T06:45:13.216Z,6.13
2022-11-17T06:47:41.563Z,6.10
2022-11-17T06:50:11.218Z,8.05
2022-11-17T06:52:40.840Z,4.95
2022-11-17T06:55:09.910Z,4.95
2022-11-17T06:57:38.361Z,4.05
2022-11-17T07:00:08.196Z,3.67
2022-11-17T07:02:37.173Z,3.15
2022-11-17T07:05:06.001Z,4.32
2022-11-17T07:07:34.364Z,4.20
2022-11-17T07:10:04.560Z,4.13
2022-11-17T07:12:34.118Z,4.90
2022-11-17T07:15:02.544Z,3.45
2022-11-17T07:17:30.824Z,4.65
2022-11-17T07:19:59.389Z,2.70
2022-11-17T07:22:27.654Z,2.70
2022-11-17T07:24:56.050Z,2.40
2022-11-17T07:27:25.749Z,1.50
2022-11-17T07:29:54.144Z,2.58
2022-11-17T07:32:22.478Z,2.17
2022-11-17T07:34:50.822Z,1.63
2022-11-17T07:37:19.507Z,2.00
2022-11-17T07:39:47.852Z,2.10
2022-11-17T07:42:16.199Z,4.60
2022-11-17T07:44:47.353Z,3.00
2022-11-17T07:47:15.948Z,2.95
2022-11-17T07:49:44.249Z,2.10
2022-11-17T07:52:12.627Z,2.47
2022-11-17T07:54:41.009Z,1.65
2022-11-17T07:57:09.407Z,1.60
2022-11-17T07:59:37.768Z,1.92
2022-11-17T08:02:07.620Z,2.00
2022-11-17T08:04:35.959Z,2.45
2022-11-17T08:07:04.441Z,2.20
2022-11-17T08:09:32.831Z,2.00
2022-11-17T08:12:01.198Z,3.60
2022-11-17T08:14:30.309Z,3.05
2022-11-17T08:16:58.670Z,2.47
2022-11-17T08:19:28.387Z,3.42
2022-11-17T08:21:56.902Z,3.22
2022-11-17T08:24:25.301Z,2.53
2022-11-17T08:26:54.633Z,2.70
2022-11-17T08:29:22.973Z,2.63
2022-11-17T08:31:51.391Z,2.67
2022-11-17T08:34:19.789Z,3.35
2022-11-17T08:36:49.483Z,2.35
2022-11-17T08:39:17.914Z,2.23
2022-11-17T08:41:46.303Z,1.55
2022-11-17T08:44:14.637Z,1.60
2022-11-17T08:46:42.969Z,1.92
2022-11-17T08:49:11.258Z,1.65
2022-11-17T08:51:39.760Z,1.60
2022-11-17T08:54:12.410Z,1.63
2022-11-17T08:56:40.886Z,2.38
2022-11-17T08:59:12.743Z,1.80
2022-11-17T09:01:41.394Z,2.08
2022-11-17T09:04:09.686Z,2.70
2022-11-17T09:06:38.059Z,1.85
2022-11-17T09:09:06.460Z,2.83
2022-11-17T09:11:36.236Z,2.47
2022-11-17T09:14:04.819Z,2.70
2022-11-17T09:16:33.400Z,2.55
2022-11-17T09:19:02.743Z,2.95
2022-11-17T09:21:32.652Z,2.53
2022-11-17T09:24:01.334Z,1.70
2022-11-17T09:26:29.754Z,2.22
2022-11-17T09:29:02.212Z,3.78
2022-11-17T09:31:31.174Z,2.40
2022-11-17T09:34:04.844Z,2.10
2022-11-17T09:36:34.361Z,1.40
2022-11-17T09:39:02.644Z,2.17
2022-11-17T09:41:36.828Z,1.10
2022-11-17T09:44:16.376Z,1.58
2022-11-17T09:47:03.126Z,3.78
2022-11-17T09:49:43.442Z,1.77
2022-11-17T09:52:19.339Z,2.20
2022-11-17T09:54:53.272Z,2.13
2022-11-17T09:57:31.380Z,2.03
2022-11-17T10:00:15.520Z,1.20
2022-11-17T10:02:44.534Z,1.40
2022-11-17T10:05:17.395Z,2.10
2022-11-17T10:07:49.638Z,1.50
2022-11-17T10:10:21.185Z,1.73
2022-11-17T10:12:56.876Z,1.07
2022-11-17T10:15:30.584Z,1.00
2022-11-17T10:17:59.152Z,0.80
2022-11-17T10:20:27.454Z,1.23
2022-11-17T10:22:57.255Z,1.07
2022-11-17T10:25:37.994Z,1.10
2022-11-17T10:28:08.655Z,0.87
2022-11-17T10:30:38.288Z,1.30
2022-11-17T10:33:06.598Z,0.73
2022-11-17T10:35:36.590Z,1.10
2022-11-17T10:38:07.248Z,0.70
2022-11-17T10:40:49.671Z,0.90
2022-11-17T10:43:24.511Z,0.80
2022-11-17T10:45:56.573Z,0.60
2022-11-17T10:48:28.526Z,0.47
2022-11-17T10:50:58.615Z,0.60
2022-11-17T10:53:41.340Z,1.10
2022-11-17T10:56:16.267Z,0.87
2022-11-17T10:59:00.531Z,0.87
2022-11-17T11:01:32.369Z,0.80
2022-11-17T11:04:03.578Z,0.80
2022-11-17T11:06:33.389Z,0.73
2022-11-17T11:09:04.634Z,0.70
2022-11-17T11:11:43.283Z,0.70
2022-11-17T11:14:20.393Z,0.70
2022-11-17T11:16:51.623Z,0.90
2022-11-17T11:19:21.368Z,0.80
2022-11-17T11:22:23.697Z,0.73
2022-11-17T11:24:59.368Z,0.60
2022-11-17T11:27:53.243Z,0.50
2022-11-17T11:30:21.635Z,0.83
2022-11-17T11:33:08.361Z,0.37
2022-11-17T11:36:07.159Z,0.40
2022-11-17T11:38:49.857Z,0.30
2022-11-17T11:41:28.653Z,0.60
2022-11-17T11:44:16.622Z,0.47
2022-11-17T11:46:51.282Z,0.60
2022-11-17T11:49:32.368Z,0.40
2022-11-17T11:52:02.169Z,0.50
2022-11-17T11:54:40.498Z,0.30
2022-11-17T11:57:13.483Z,0.27
2022-11-17T11:59:49.364Z,0.60
2022-11-17T12:02:29.186Z,0.30
2022-11-17T12:05:08.867Z,0.50
2022-11-17T12:07:44.244Z,0.53
2022-11-17T12:10:20.614Z,0.40
2022-11-17T12:12:49.811Z,0.43
2022-11-17T12:15:37.607Z,0.40
2022-11-17T12:18:12.024Z,0.40
2022-11-17T12:20:58.074Z,0.70
2022-11-17T12:24:04.488Z,0.50
2022-11-17T12:26:34.941Z,0.80
2022-11-17T12:29:34.098Z,0.50
2022-11-17T12:32:03.761Z,0.60
2022-11-17T12:34:34.115Z,0.70
2022-11-17T12:37:22.902Z,0.80
2022-11-17T12:40:02.769Z,0.63
2022-11-17T12:42:32.136Z,0.80
2022-11-17T12:45:12.195Z,0.80
2022-11-17T12:47:44.172Z,1.20
2022-11-17T12:50:38.516Z,0.60
2022-11-17T12:53:32.648Z,1.17
2022-11-17T12:56:32.558Z,0.57
2022-11-17T12:59:25.901Z,1.10
2022-11-17T13:02:00.952Z,0.97
2022-11-17T13:04:37.059Z,1.00
2022-11-17T13:07:07.310Z,1.13
2022-11-17T13:09:37.560Z,0.67
2022-11-17T13:12:08.356Z,0.93
2022-11-17T13:14:37.913Z,0.80
2022-11-17T13:17:13.129Z,0.63
2022-11-17T13:19:42.534Z,1.10
2022-11-17T13:22:16.503Z,0.50
2022-11-17T13:24:48.449Z,0.77
2022-11-17T13:27:23.883Z,0.60
2022-11-17T13:29:52.438Z,0.40
2022-11-17T13:32:23.794Z,0.40
2022-11-17T13:34:56.439Z,0.63
2022-11-17T13:37:26.793Z,0.90
2022-11-17T13:39:58.303Z,0.83
2022-11-17T13:42:30.911Z,0.70
2022-11-17T13:45:01.775Z,0.60
2022-11-17T13:47:45.453Z,0.50
2022-11-17T13:50:41.578Z,0.60
2022-11-17T13:53:25.739Z,0.60
2022-11-17T13:55:55.506Z,0.60
2022-11-17T13:58:30.175Z,0.50
2022-11-17T14:00:59.933Z,0.60
2022-11-17T14:03:39.873Z,0.80
2022-11-17T14:06:10.425Z,0.73
2022-11-17T14:08:40.033Z,0.80
2022-11-17T14:11:21.267Z,0.80
2022-11-17T14:13:52.380Z,0.40
2022-11-17T14:16:28.084Z,0.57
2022-11-17T14:18:59.495Z,0.30
2022-11-17T14:21:28.224Z,0.67
2022-11-17T14:24:13.455Z,0.50
2022-11-17T14:26:45.392Z,0.30
2022-11-17T14:29:14.739Z,0.50
2022-11-17T14:31:43.786Z,0.40
2022-11-17T14:34:12.472Z,2.57
2022-11-17T14:36:41.624Z,4.17
2022-11-17T14:39:15.954Z,9.97
2022-11-17T14:41:47.014Z,7.37
2022-11-17T14:44:15.749Z,3.27
2022-11-17T14:46:44.213Z,2.67
2022-11-17T14:49:12.895Z,2.57
2022-11-17T14:51:41.441Z,2.80
2022-11-17T14:54:12.968Z,2.07
2022-11-17T14:56:41.163Z,1.47
2022-11-17T14:59:12.350Z,1.53
2022-11-17T15:01:41.146Z,0.73
2022-11-17T15:04:34.578Z,1.50
2022-11-17T15:06:58.042Z,1.00
2022-11-17T15:09:26.483Z,1.30
2022-11-17T15:11:54.777Z,2.63
2022-11-17T15:14:25.472Z,1.40
2022-11-17T15:16:53.713Z,1.97
2022-11-17T15:19:23.846Z,2.07
2022-11-17T15:21:52.793Z,1.30
2022-11-17T15:24:22.750Z,0.93
2022-11-17T15:26:51.079Z,0.80
2022-11-17T15:29:19.521Z,0.77
2022-11-17T15:31:49.247Z,0.73
2022-11-17T15:34:20.408Z,0.40
2022-11-17T15:36:49.494Z,0.50
2022-11-17T15:39:23.028Z,0.87
2022-11-17T15:41:51.718Z,2.30
2022-11-17T15:44:20.080Z,2.10
2022-11-17T15:46:49.719Z,1.20
2022-11-17T15:49:18.573Z,0.47
2022-11-17T15:51:47.219Z,0.47
2022-11-17T15:54:20.416Z,0.83
2022-11-17T15:56:50.881Z,0.50
2022-11-17T15:59:19.774Z,0.60
2022-11-17T16:01:49.862Z,0.60
2022-11-17T16:04:18.392Z,0.50
2022-11-17T16:06:47.544Z,0.30
2022-11-17T16:09:17.383Z,0.20
2022-11-17T16:11:46.206Z,0.40
2022-11-17T16:14:15.361Z,0.50
2022-11-17T16:16:46.012Z,0.30
2022-11-17T16:19:16.110Z,0.30
2022-11-17T16:21:44.597Z,0.50
2022-11-17T16:24:13.401Z,0.40
2022-11-17T16:26:41.699Z,0.30
2022-11-17T16:29:10.063Z,0.40
2022-11-17T16:31:39.170Z,0.40
2022-11-17T16:34:11.671Z,0.60
2022-11-17T16:36:42.752Z,0.67
2022-11-17T16:39:12.906Z,1.10
2022-11-17T16:41:42.840Z,0.40
2022-11-17T16:44:12.909Z,1.33
2022-11-17T16:46:43.771Z,2.00
2022-11-17T16:49:14.229Z,0.60
2022-11-17T16:51:48.272Z,1.17
2022-11-17T16:54:16.694Z,0.67
2022-11-17T16:56:45.507Z,0.80
2022-11-17T16:59:16.586Z,0.90
2022-11-17T17:01:45.449Z,1.47
2022-11-17T17:04:13.951Z,1.00
2022-11-17T17:06:45.861Z,1.07
2022-11-17T17:09:15.902Z,0.93
2022-11-17T17:11:44.477Z,2.90
2022-11-17T17:14:14.622Z,1.60
2022-11-17T17:16:43.771Z,0.60
2022-11-17T17:19:14.314Z,1.40
2022-11-17T17:21:45.596Z,1.38
2022-11-17T17:24:15.960Z,1.10
2022-11-17T17:26:44.325Z,1.17
2022-11-17T17:29:14.165Z,6.53
2022-11-17T17:31:43.606Z,3.70
2022-11-17T17:34:13.525Z,2.93
2022-11-17T17:36:43.872Z,1.43
2022-11-17T17:39:15.586Z,0.83
2022-11-17T17:41:45.810Z,1.00
2022-11-17T17:44:16.531Z,1.57
2022-11-17T17:46:45.543Z,1.10
2022-11-17T17:49:19.910Z,1.60
2022-11-17T17:51:49.766Z,1.80
2022-11-17T17:54:25.389Z,1.93
2022-11-17T17:56:53.834Z,1.53
2022-11-17T17:59:22.188Z,2.23
2022-11-17T18:01:51.465Z,1.73
2022-11-17T18:04:21.180Z,1.70
2022-11-17T18:06:51.176Z,1.40
2022-11-17T18:09:20.382Z,1.23
2022-11-17T18:11:51.121Z,1.40
2022-11-17T18:14:24.533Z,1.00
2022-11-17T18:16:53.366Z,0.70
2022-11-17T18:19:21.811Z,1.17
2022-11-17T18:21:51.485Z,1.27
2022-11-17T18:24:19.887Z,1.20
2022-11-17T18:26:48.357Z,0.93
2022-11-17T18:29:18.812Z,0.80
2022-11-17T18:31:49.284Z,1.50
2022-11-17T18:34:21.205Z,2.20
2022-11-17T18:36:52.121Z,0.97
2022-11-17T18:39:21.370Z,0.93
2022-11-17T18:41:49.890Z,1.00
2022-11-17T18:44:19.902Z,1.20
2022-11-17T18:46:48.563Z,0.77
2022-11-17T18:49:17.213Z,0.90
2022-11-17T18:51:46.177Z,1.60
2022-11-17T18:54:16.030Z,1.90
2022-11-17T18:56:45.405Z,1.17
2022-11-17T18:59:14.266Z,1.47
2022-11-17T19:01:44.047Z,1.93
2022-11-17T19:04:14.733Z,1.50
2022-11-17T19:06:43.182Z,2.50
2022-11-17T19:09:12.382Z,1.97
2022-11-17T19:11:42.090Z,2.80
2022-11-17T19:14:10.499Z,2.60
2022-11-17T19:16:44.136Z,2.00
2022-11-17T19:19:15.154Z,2.00
2022-11-17T19:21:44.312Z,2.00
2022-11-17T19:24:13.079Z,1.60
2022-11-17T19:26:43.055Z,3.10
2022-11-17T19:29:17.330Z,4.23
2022-11-17T19:31:46.825Z,2.90
2022-11-17T19:34:15.672Z,3.07
2022-11-17T19:36:44.540Z,2.67
2022-11-17T19:39:14.707Z,2.20
2022-11-17T19:41:45.278Z,2.20
2022-11-17T19:44:13.822Z,2.53
2022-11-17T19:46:43.197Z,1.75
2022-11-17T19:49:13.293Z,1.40
2022-11-17T19:51:42.166Z,1.30
2022-11-17T19:54:13.436Z,2.13
2022-11-17T19:56:41.775Z,1.30
2022-11-17T19:59:15.966Z,2.92
2022-11-17T20:01:45.949Z,1.35
2022-11-17T20:04:14.485Z,1.45
2022-11-17T20:06:42.819Z,1.88
2022-11-17T20:09:14.298Z,2.30
2022-11-17T20:11:43.326Z,1.23
2022-11-17T20:14:14.487Z,1.00
2022-11-17T20:16:42.794Z,1.10
2022-11-17T20:19:12.122Z,1.08
2022-11-17T20:21:40.836Z,0.95
2022-11-17T20:24:09.708Z,1.00
2022-11-17T20:26:40.614Z,1.02
2022-11-17T20:29:09.063Z,1.02
2022-11-17T20:31:38.756Z,0.70
2022-11-17T20:34:07.283Z,0.80
2022-11-17T20:36:36.233Z,1.10
2022-11-17T20:39:06.959Z,0.70
2022-11-17T20:41:36.900Z,0.65
2022-11-17T20:44:05.669Z,0.90
2022-11-17T20:46:33.938Z,0.90
2022-11-17T20:49:03.843Z,1.00
2022-11-17T20:51:32.227Z,0.93
2022-11-17T20:54:00.574Z,0.98
2022-11-17T20:56:28.939Z,0.75
2022-11-17T20:58:57.475Z,0.90
2022-11-17T21:01:25.942Z,0.80
2022-11-17T21:03:54.477Z,0.70
2022-11-17T21:06:24.852Z,0.77
2022-11-17T21:08:53.372Z,0.90
2022-11-17T21:11:40.958Z,0.87
2022-11-17T21:14:11.221Z,0.40
2022-11-17T21:16:41.072Z,0.63
2022-11-17T21:19:09.964Z,0.88
2022-11-17T21:21:39.742Z,0.90
2022-11-17T21:24:08.699Z,0.83
2022-11-17T21:26:37.054Z,0.50
2022-11-17T21:29:06.880Z,0.50
2022-11-17T21:31:36.132Z,0.60
2022-11-17T21:34:06.331Z,0.40
2022-11-17T21:36:36.160Z,0.83
2022-11-17T21:39:06.284Z,0.93
2022-11-17T21:41:37.832Z,0.50
2022-11-17T21:44:06.463Z,0.70
2022-11-17T21:46:36.307Z,0.50
2022-11-17T21:49:06.203Z,0.40
2022-11-17T21:51:38.495Z,0.57
2022-11-17T21:54:10.860Z,0.90
2022-11-17T21:56:40.350Z,0.88
2022-11-17T21:59:13.133Z,0.90
2022-11-17T22:01:41.505Z,0.60
2022-11-17T22:04:11.429Z,0.90
2022-11-17T22:06:40.404Z,0.63
2022-11-17T22:09:10.292Z,0.75
2022-11-17T22:11:39.222Z,0.65
2022-11-17T22:14:10.652Z,0.68
2022-11-17T22:16:40.820Z,0.60
2022-11-17T22:19:10.560Z,0.47
2022-11-17T22:21:39.982Z,0.45
2022-11-17T22:24:12.901Z,0.52
2022-11-17T22:26:43.569Z,0.57
2022-11-17T22:29:13.877Z,0.45
2022-11-17T22:31:42.465Z,0.80
2022-11-17T22:34:10.853Z,0.60
2022-11-17T22:36:39.304Z,0.90
2022-11-17T22:39:07.875Z,0.57
2022-11-17T22:41:37.935Z,0.60
2022-11-17T22:44:06.500Z,0.85
2022-11-17T22:46:35.170Z,0.70
2022-11-17T22:49:03.537Z,0.70
2022-11-17T22:51:49.500Z,0.40
2022-11-17T22:54:17.923Z,0.63
2022-11-17T22:56:47.571Z,0.73
2022-11-17T22:59:17.738Z,0.73
2022-11-17T23:01:46.263Z,0.95
2022-11-17T23:04:16.364Z,0.70
2022-11-17T23:06:45.036Z,0.95
2022-11-17T23:09:14.312Z,0.80
2022-11-17T23:11:43.305Z,0.60
2022-11-17T23:14:14.886Z,0.60
2022-11-17T23:16:43.538Z,0.88
2022-11-17T23:19:14.504Z,0.70
2022-11-17T23:21:43.080Z,0.93
2022-11-17T23:24:13.021Z,0.80
2022-11-17T23:26:41.997Z,0.90
2022-11-17T23:29:11.991Z,1.50
2022-11-17T23:31:40.574Z,1.15
2022-11-17T23:34:10.753Z,1.80
2022-11-17T23:36:39.148Z,1.65
2022-11-17T23:39:07.551Z,1.53
2022-11-17T23:41:35.923Z,1.23
2022-11-17T23:44:04.434Z,1.57
2022-11-17T23:46:34.187Z,1.60
2022-11-17T23:49:02.659Z,0.95
2022-11-17T23:51:31.191Z,1.07
2022-11-17T23:54:00.369Z,1.33
2022-11-17T23:56:28.693Z,0.95
2022-11-17T23:58:57.202Z,1.38
